Flight Track Log - Related Links

Times and Time Zones

All times are in EDT time to prevent confusion due to time zone crossing. See the AIP5031 flight status page for this flight to view local times or setup timezone preferences in your user account.

Time Position Orientation Groundspeed Altitude Reporting Facility
EDT Latitude Longitude Course Direction KTS MPH feet Rate Location/Type
Fri 05:23:40 AM 46.9267 -114.1094 101° East 107 123 4,300  Level Salt Lake Center
Fri 05:24:40 AM 46.9394 -114.1564 292° West 124 143 6,000 1,600 Climbing Salt Lake Center
Fri 05:25:40 AM 46.9603 -114.2003 305° West 133 153 7,500 1,400 Climbing Salt Lake Center
Fri 05:26:40 AM 46.9603 -114.2392 270° West 147 169 8,800 1,350 Climbing Salt Lake Center
Fri 05:27:40 AM 46.9419 -114.1936 121° Southeast 134 154 10,200 1,400 Climbing Salt Lake Center
Fri 05:28:00 AM 46.8238 -113.5608 101° East  Level Estimated
Fri 05:28:40 AM 46.9289 -114.1375 109° East 144 166 11,600  Level Salt Lake Center
Fri 05:29:41 AM 46.9161 -114.0897 111° Southeast 146 168 12,700 1,240 Climbing Salt Lake Center
Fri 05:30:41 AM 46.8992 -114.0183 109° East 154 177 14,100 1,150 Climbing Salt Lake Center
Fri 05:31:41 AM 46.8833 -113.9536 110° East 168 193 15,000 550 Climbing Salt Lake Center
Fri 05:32:41 AM 46.8686 -113.8722 105° East 201 231 15,200  Climbing Salt Lake Center
Fri 05:33:41 AM 46.8469 -113.7839 110° East 229 264 15,000 -100 Descending Salt Lake Center
Fri 05:34:41 AM 46.8319 -113.6892 103° East 238 274 15,000  Level Salt Lake Center
Fri 05:35:42 AM 46.8181 -113.5931 102° East 242 278 15,000  Level Salt Lake Center
Fri 05:36:42 AM 46.8047 -113.4978 102° East 241 277 15,000  Level Salt Lake Center
Fri 05:37:42 AM 46.7883 -113.4053 104° East 238 274 15,000  Level Salt Lake Center
Fri 05:38:42 AM 46.7736 -113.3117 103° East 237 273 15,000 50 Level Salt Lake Center
Fri 05:39:42 AM 46.7606 -113.2347 104° East 241 277 15,100 50 Climbing Salt Lake Center
Fri 05:40:43 AM 46.7389 -113.1253 106° East 236 272 15,100  Level Salt Lake Center
Fri 05:41:43 AM 46.7225 -113.0314 104° East 239 275 15,100 -50 Level Salt Lake Center
Fri 05:42:43 AM 46.7067 -112.9392 104° East 237 273 15,000 -50 Descending Salt Lake Center
Fri 05:43:43 AM 46.6908 -112.8575 106° East 232 267 15,000 50 Level Salt Lake Center
Fri 05:44:43 AM 46.6742 -112.7647 105° East 236 272 15,100  Climbing Salt Lake Center
Fri 05:45:43 AM 46.6581 -112.6722 104° East 237 273 15,000 -50 Descending Salt Lake Center
Fri 05:46:44 AM 46.6389 -112.5806 107° East 237 273 15,000 50 Level Salt Lake Center
Fri 05:47:44 AM 46.6233 -112.4886 104° East 236 272 15,100 50 Climbing Salt Lake Center
Fri 05:48:44 AM 46.6042 -112.3958 107° East 238 274 15,100 -50 Level Salt Lake Center
Fri 05:49:44 AM 46.5883 -112.3047 104° East 236 272 15,000 -50 Descending Salt Lake Center
Fri 05:50:44 AM 46.5703 -112.2117 106° East 238 274 15,000  Level Salt Lake Center
Fri 05:51:45 AM 46.5533 -112.1203 105° East 236 272 15,000 50 Level Salt Lake Center
Fri 05:52:45 AM 46.5383 -112.0294 103° East 234 269 15,100 50 Climbing Salt Lake Center
Fri 05:53:45 AM 46.5206 -111.9350 105° East 239 275 15,100  Level Salt Lake Center
Fri 05:54:45 AM 46.5011 -111.8444 107° East 239 275 15,100 -50 Level Salt Lake Center
Fri 05:55:46 AM 46.4833 -111.7533 106° East 237 273 15,000 -50 Descending Salt Lake Center
Fri 05:56:46 AM 46.4661 -111.6631 105° East 236 272 15,000  Level Salt Lake Center
Fri 05:57:46 AM 46.4478 -111.5739 107° East 234 269 15,000  Level Salt Lake Center
Fri 05:58:46 AM 46.4294 -111.4842 106° East 232 267 15,000  Level Salt Lake Center
Fri 05:59:47 AM 46.4108 -111.3928 106° East 234 269 15,000  Level Salt Lake Center
Fri 06:00:47 AM 46.3917 -111.3025 107° East 235 270 15,000  Level Salt Lake Center
Fri 06:01:47 AM 46.3753 -111.2111 105° East 234 269 15,000  Level Salt Lake Center
Fri 06:02:47 AM 46.3581 -111.1189 105° East 237 273 15,000  Level Salt Lake Center
Fri 06:03:48 AM 46.3400 -111.0272 106° East 237 273 15,000 50 Level Salt Lake Center
Fri 06:04:48 AM 46.3178 -110.9289 108° East 234 269 15,100 50 Climbing Salt Lake Center
Fri 06:05:48 AM 46.2972 -110.8367 108° East 234 269 15,100 -50 Level Salt Lake Center
Fri 06:06:48 AM 46.2797 -110.7503 106° East 232 267 15,000 -50 Descending Salt Lake Center
Fri 06:07:48 AM 46.2631 -110.6583 105° East 235 270 15,000 50 Level Salt Lake Center
Fri 06:08:49 AM 46.2458 -110.5689 106° East 233 268 15,100 50 Climbing Salt Lake Center
Fri 06:09:49 AM 46.2261 -110.4792 108° East 234 269 15,100 -50 Level Salt Lake Center
Fri 06:10:49 AM 46.2094 -110.3875 105° East 234 269 15,000 -50 Descending Salt Lake Center
Fri 06:11:49 AM 46.1997 -110.2922 98° East 236 272 15,000  Level Salt Lake Center
Fri 06:12:49 AM 46.1717 -110.2078 116° Southeast 237 273 15,000  Level Salt Lake Center
Fri 06:13:50 AM 46.1508 -110.1203 109° East 232 267 15,000  Level Salt Lake Center
Fri 06:14:50 AM 46.1319 -110.0303 107° East 234 269 15,000  Level Salt Lake Center
Fri 06:15:50 AM 46.1133 -109.9403 107° East 235 270 15,000  Level Salt Lake Center
Fri 06:16:50 AM 46.0950 -109.8497 106° East 235 270 15,000 50 Level Salt Lake Center
Fri 06:17:51 AM 46.0744 -109.7561 108° East 237 273 15,100  Climbing Salt Lake Center
Fri 06:18:51 AM 46.0519 -109.6597 109° East 239 275 15,000 -50 Descending Salt Lake Center
Fri 06:19:51 AM 46.0272 -109.5736 112° Southeast 235 270 15,000  Level Salt Lake Center
Fri 06:20:51 AM 46.0100 -109.4831 105° East 236 272 15,000 -250 Level Salt Lake Center
Fri 06:21:51 AM 45.9903 -109.3908 107° East 244 281 14,500 -595 Descending Salt Lake Center
Fri 06:22:52 AM 45.9725 -109.2942 105° East 252 290 13,800 -645 Descending Salt Lake Center
Fri 06:23:52 AM 45.9517 -109.2019 108° East 247 284 13,200 -750 Descending Salt Lake Center
Fri 06:24:52 AM 45.9303 -109.1008 107° East 247 284 12,300 -1,000 Descending Salt Lake Center
Fri 06:25:52 AM 45.9106 -109.0081 107° East 246 283 11,200 -1,041 Descending Salt Lake Center
Fri 06:26:53 AM 45.8917 -108.9178 107° East 242 278 10,200 -1,289 Descending Salt Lake Center
Fri 06:27:53 AM 45.8731 -108.8281 107° East 238 274 8,600 -1,750 Descending Salt Lake Center
Fri 06:28:53 AM 45.8558 -108.7364 105° East 240 276 6,700 -1,700 Descending Salt Lake Center
Fri 06:29:53 AM 45.8414 -108.6581 105° East 199 229 5,200 -1,200 Descending Salt Lake Center
Fri 06:30:53 AM 45.8225 -108.5906 112° Southeast 171 197 4,300 -744 Descending Salt Lake Center
Fri 06:31:54 AM 45.8114 -108.5481 111° Southeast 124 143 3,700 -590 Descending Salt Lake Center
Fri 06:33:00 AM 45.8077 -108.5429 90° East  Level Estimated

Login

Don't have an account? Register now (free) for customized features, flight alerts, and more!